createdAt,value
2022-12-11T00:02:25.547Z,30.88
2022-12-11T00:04:53.082Z,31.08
2022-12-11T00:07:20.491Z,46.15
2022-12-11T00:09:47.920Z,30.75
2022-12-11T00:12:15.371Z,33.85
2022-12-11T00:14:42.774Z,35.03
2022-12-11T00:17:10.575Z,41.30
2022-12-11T00:19:38.023Z,34.22
2022-12-11T00:22:05.437Z,31.13
2022-12-11T00:24:32.975Z,35.83
2022-12-11T00:27:00.457Z,31.92
2022-12-11T00:29:27.824Z,38.60
2022-12-11T00:31:55.286Z,30.25
2022-12-11T00:34:22.766Z,32.13
2022-12-11T00:36:50.320Z,32.97
2022-12-11T00:39:17.744Z,37.85
2022-12-11T00:41:45.204Z,28.33
2022-12-11T00:44:12.588Z,29.00
2022-12-11T00:46:40.078Z,30.52
2022-12-11T00:49:07.437Z,32.65
2022-12-11T00:51:34.807Z,30.05
2022-12-11T00:54:02.170Z,37.42
2022-12-11T00:56:30.120Z,27.40
2022-12-11T00:58:57.546Z,29.08
2022-12-11T01:01:25.646Z,30.88
2022-12-11T01:03:53.239Z,29.80
2022-12-11T01:06:23.093Z,28.17
2022-12-11T01:09:11.387Z,26.30
2022-12-11T01:11:40.185Z,37.47
2022-12-11T01:14:09.424Z,32.67
2022-12-11T01:16:37.130Z,35.40
2022-12-11T01:19:04.576Z,38.80
2022-12-11T01:21:32.059Z,36.80
2022-12-11T01:23:59.826Z,38.70
2022-12-11T01:26:27.216Z,43.05
2022-12-11T01:28:54.634Z,46.42
2022-12-11T01:31:22.352Z,46.60
2022-12-11T01:33:49.768Z,43.33
2022-12-11T01:36:19.735Z,49.53
2022-12-11T01:38:48.371Z,51.83
2022-12-11T01:41:16.439Z,42.03
2022-12-11T01:44:16.234Z,41.20
2022-12-11T01:46:43.692Z,44.75
2022-12-11T01:49:12.961Z,49.00
2022-12-11T01:51:52.493Z,46.67
2022-12-11T01:54:21.125Z,41.75
2022-12-11T01:56:48.736Z,42.55
2022-12-11T01:59:17.897Z,38.88
2022-12-11T02:01:54.895Z,48.55
2022-12-11T02:04:22.326Z,47.25
2022-12-11T02:06:50.975Z,37.63
2022-12-11T02:09:27.337Z,40.53
2022-12-11T02:12:04.289Z,45.67
2022-12-11T02:14:57.127Z,52.78
2022-12-11T02:17:38.814Z,59.50
2022-12-11T02:20:21.857Z,52.67
2022-12-11T02:23:13.645Z,64.70
2022-12-11T02:25:52.753Z,54.65
2022-12-11T02:28:35.413Z,63.42
2022-12-11T02:31:36.662Z,57.00
2022-12-11T02:34:16.197Z,57.38
2022-12-11T02:36:47.037Z,48.53
2022-12-11T02:39:15.174Z,43.58
2022-12-11T02:41:44.376Z,43.10
2022-12-11T02:44:12.360Z,42.25
2022-12-11T02:46:40.224Z,36.38
2022-12-11T02:49:07.596Z,41.88
2022-12-11T02:51:37.875Z,42.67
2022-12-11T02:54:06.004Z,40.97
2022-12-11T02:56:37.141Z,37.28
2022-12-11T02:59:11.230Z,40.05
2022-12-11T03:01:38.681Z,38.30
2022-12-11T03:04:06.218Z,36.72
2022-12-11T03:06:40.036Z,36.72
2022-12-11T03:09:07.457Z,42.55
2022-12-11T03:11:34.839Z,50.97
2022-12-11T03:14:05.720Z,57.65
2022-12-11T03:16:41.077Z,66.68
2022-12-11T03:19:14.497Z,68.60
2022-12-11T03:21:45.286Z,67.47
2022-12-11T03:24:23.981Z,72.80
2022-12-11T03:26:56.883Z,67.25
2022-12-11T03:30:00.857Z,57.40
2022-12-11T03:32:31.113Z,54.10
2022-12-11T03:35:19.351Z,44.75
2022-12-11T03:37:46.653Z,43.42
2022-12-11T03:40:16.342Z,42.33
2022-12-11T03:42:45.023Z,35.55
2022-12-11T03:45:12.534Z,45.28
2022-12-11T03:47:40.092Z,33.28
2022-12-11T03:50:08.814Z,36.95
2022-12-11T03:52:39.679Z,35.42
2022-12-11T03:55:10.147Z,28.08
2022-12-11T03:57:37.962Z,33.00
2022-12-11T04:00:14.176Z,39.25
2022-12-11T04:02:42.277Z,36.20
2022-12-11T04:05:10.253Z,29.15
2022-12-11T04:07:38.171Z,27.20
2022-12-11T04:10:06.855Z,32.50
2022-12-11T04:12:34.867Z,35.90
2022-12-11T04:15:02.413Z,31.48
2022-12-11T04:17:49.783Z,36.80
2022-12-11T04:20:35.640Z,26.52
2022-12-11T04:23:25.289Z,30.60
2022-12-11T04:25:52.707Z,33.10
2022-12-11T04:28:20.046Z,36.03
2022-12-11T04:30:50.638Z,27.92
2022-12-11T04:33:18.020Z,37.30
2022-12-11T04:35:45.622Z,30.63
2022-12-11T04:38:13.103Z,28.40
2022-12-11T04:40:40.467Z,36.40
2022-12-11T04:43:07.821Z,36.17
2022-12-11T04:45:35.371Z,33.55
2022-12-11T04:48:03.451Z,30.50
2022-12-11T04:50:31.039Z,28.92
2022-12-11T04:52:58.464Z,33.33
2022-12-11T04:55:26.152Z,32.17
2022-12-11T04:57:53.588Z,40.33
2022-12-11T05:00:23.026Z,28.25
2022-12-11T05:02:50.980Z,34.58
2022-12-11T05:05:18.509Z,38.47
2022-12-11T05:07:47.054Z,29.40
2022-12-11T05:10:14.471Z,36.35
2022-12-11T05:12:41.854Z,30.98
2022-12-11T05:15:11.218Z,30.73
2022-12-11T05:17:39.043Z,30.98
2022-12-11T05:20:07.281Z,32.17
2022-12-11T05:22:35.108Z,32.85
2022-12-11T05:25:02.460Z,28.90
2022-12-11T05:27:30.102Z,30.13
2022-12-11T05:29:59.612Z,40.28
2022-12-11T05:32:27.241Z,35.72
2022-12-11T05:34:54.539Z,35.28
2022-12-11T05:37:21.933Z,37.63
2022-12-11T05:39:49.612Z,33.20
2022-12-11T05:42:17.031Z,36.30
2022-12-11T05:44:44.412Z,32.95
2022-12-11T05:47:11.731Z,36.25
2022-12-11T05:49:39.264Z,31.52
2022-12-11T05:52:06.596Z,33.42
2022-12-11T05:54:34.032Z,33.15
2022-12-11T05:57:01.531Z,46.03
2022-12-11T05:59:29.324Z,39.05
2022-12-11T06:01:57.023Z,36.60
2022-12-11T06:04:24.517Z,36.38
2022-12-11T06:06:54.484Z,32.35
2022-12-11T06:09:21.871Z,34.45
2022-12-11T06:11:49.273Z,34.88
2022-12-11T06:14:16.681Z,42.85
2022-12-11T06:16:44.100Z,36.90
2022-12-11T06:19:15.258Z,36.25
2022-12-11T06:21:42.698Z,31.35
2022-12-11T06:24:11.102Z,37.00
2022-12-11T06:26:38.595Z,38.25
2022-12-11T06:29:09.159Z,38.13
2022-12-11T06:31:40.429Z,40.08
2022-12-11T06:34:08.880Z,35.20
2022-12-11T06:36:36.479Z,44.22
2022-12-11T06:39:04.265Z,35.65
2022-12-11T06:41:31.884Z,39.78
2022-12-11T06:43:59.217Z,34.20
2022-12-11T06:46:27.018Z,32.10
2022-12-11T06:48:54.580Z,33.35
2022-12-11T06:51:22.606Z,35.83
2022-12-11T06:53:54.547Z,34.58
2022-12-11T06:56:22.578Z,37.40
2022-12-11T06:58:50.253Z,33.95
2022-12-11T07:01:23.113Z,29.30
2022-12-11T07:03:53.662Z,32.53
2022-12-11T07:06:21.321Z,35.30
2022-12-11T07:08:49.167Z,30.02
2022-12-11T07:11:17.115Z,36.70
2022-12-11T07:13:45.621Z,30.02
2022-12-11T07:16:13.861Z,30.20
2022-12-11T07:18:44.212Z,34.63
2022-12-11T07:21:12.672Z,34.00
2022-12-11T07:23:40.569Z,26.35
2022-12-11T07:26:10.041Z,32.35
2022-12-11T07:28:37.596Z,29.33
2022-12-11T07:31:08.998Z,30.27
2022-12-11T07:36:04.549Z,24.90
2022-12-11T07:38:31.954Z,32.97
2022-12-11T07:41:06.407Z,31.30
2022-12-11T07:43:34.566Z,27.17
2022-12-11T07:46:03.113Z,27.83
2022-12-11T07:48:30.648Z,21.77
2022-12-11T07:51:15.239Z,31.63
2022-12-11T07:53:43.719Z,29.15
2022-12-11T07:56:11.270Z,30.63
2022-12-11T07:58:39.098Z,30.17
2022-12-11T08:01:10.418Z,33.28
2022-12-11T08:03:37.983Z,22.88
2022-12-11T08:06:05.727Z,26.38
2022-12-11T08:08:33.248Z,29.55
2022-12-11T08:11:04.429Z,33.75
2022-12-11T08:13:32.049Z,34.13
2022-12-11T08:15:59.507Z,28.20
2022-12-11T08:18:26.848Z,32.80
2022-12-11T08:20:54.363Z,29.50
2022-12-11T08:23:22.318Z,30.27
2022-12-11T08:25:49.714Z,31.73
2022-12-11T08:28:17.149Z,32.30
2022-12-11T08:30:44.551Z,29.25
2022-12-11T08:33:12.036Z,32.63
2022-12-11T08:35:40.042Z,32.30
2022-12-11T08:38:07.423Z,24.80
2022-12-11T08:40:35.034Z,26.17
2022-12-11T08:43:02.664Z,25.98
2022-12-11T08:45:30.080Z,23.15
2022-12-11T08:47:59.092Z,24.08
2022-12-11T08:50:27.036Z,22.90
2022-12-11T08:52:54.896Z,23.95
2022-12-11T08:55:22.331Z,22.90
2022-12-11T08:57:49.654Z,34.45
2022-12-11T09:00:18.565Z,25.92
2022-12-11T09:02:45.945Z,24.42
2022-12-11T09:05:13.689Z,20.65
2022-12-11T09:07:41.939Z,21.10
2022-12-11T09:10:10.188Z,24.80
2022-12-11T09:12:40.301Z,23.27
2022-12-11T09:15:08.301Z,26.10
2022-12-11T09:17:36.115Z,22.67
2022-12-11T09:20:04.081Z,22.73
2022-12-11T09:22:33.759Z,22.52
2022-12-11T09:25:01.309Z,18.75
2022-12-11T09:27:29.405Z,20.98
2022-12-11T09:29:57.848Z,19.85
2022-12-11T09:32:25.269Z,18.33
2022-12-11T09:34:52.772Z,19.17
2022-12-11T09:37:20.227Z,20.75
2022-12-11T09:39:47.580Z,29.42
2022-12-11T09:42:53.426Z,22.48
2022-12-11T09:45:20.872Z,22.05
2022-12-11T09:47:50.567Z,18.27
2022-12-11T09:50:30.109Z,18.67
2022-12-11T09:53:08.878Z,15.20
2022-12-11T09:55:50.463Z,16.67
2022-12-11T09:58:51.550Z,18.17
2022-12-11T10:01:40.922Z,15.73
2022-12-11T10:04:11.557Z,17.77
2022-12-11T10:07:22.698Z,15.30
2022-12-11T10:10:01.551Z,16.13
2022-12-11T10:12:41.167Z,17.15
2022-12-11T10:15:11.699Z,15.68
2022-12-11T10:20:39.359Z,16.75
2022-12-11T10:23:08.236Z,21.40
2022-12-11T10:25:37.950Z,15.90
2022-12-11T10:28:15.676Z,15.48
2022-12-11T10:30:55.475Z,16.05
2022-12-11T10:33:28.060Z,18.20
2022-12-11T10:35:56.744Z,18.08
2022-12-11T10:38:30.913Z,15.20
2022-12-11T10:40:59.415Z,15.65
2022-12-11T10:43:51.203Z,14.65
2022-12-11T10:46:25.132Z,15.27
2022-12-11T10:48:59.625Z,14.88
2022-12-11T10:51:33.564Z,11.70
2022-12-11T10:54:07.409Z,16.30
2022-12-11T10:56:35.757Z,14.80
2022-12-11T10:59:03.214Z,14.65
2022-12-11T11:01:31.734Z,13.93
2022-12-11T11:04:06.951Z,16.33
2022-12-11T11:06:34.512Z,15.20
2022-12-11T11:09:02.078Z,20.67
2022-12-11T11:11:35.065Z,20.90
2022-12-11T11:14:19.234Z,18.10
2022-12-11T11:16:48.044Z,12.55
2022-12-11T11:19:23.024Z,15.05
2022-12-11T11:21:52.561Z,13.50
2022-12-11T11:24:26.954Z,17.42
2022-12-11T11:27:12.751Z,15.95
2022-12-11T11:29:41.743Z,21.15
2022-12-11T11:32:21.157Z,20.75
2022-12-11T11:34:48.734Z,24.63
2022-12-11T11:37:32.568Z,23.00
2022-12-11T11:40:22.665Z,16.73
2022-12-11T11:43:08.899Z,16.42
2022-12-11T11:45:53.854Z,16.23
2022-12-11T11:48:40.260Z,15.90
2022-12-11T11:51:16.924Z,16.27
2022-12-11T11:53:47.793Z,14.18
2022-12-11T11:56:17.996Z,15.68
2022-12-11T11:58:52.734Z,12.63
2022-12-11T12:01:20.169Z,11.85
2022-12-11T12:03:47.891Z,17.40
2022-12-11T12:06:53.741Z,12.88
2022-12-11T12:09:44.934Z,11.60
2022-12-11T12:12:18.230Z,12.23
2022-12-11T12:15:14.301Z,12.75
2022-12-11T12:18:05.676Z,12.77
2022-12-11T12:20:44.791Z,15.90
2022-12-11T12:23:36.292Z,10.40
2022-12-11T12:26:21.636Z,12.98
2022-12-11T12:29:10.049Z,19.33
2022-12-11T12:31:55.463Z,13.65
2022-12-11T12:34:34.681Z,12.93
2022-12-11T12:37:45.851Z,20.77
2022-12-11T12:40:16.846Z,13.68
2022-12-11T12:43:39.906Z,16.67
2022-12-11T12:46:33.066Z,10.68
2022-12-11T12:49:00.459Z,16.05
2022-12-11T12:51:27.982Z,11.35
2022-12-11T12:53:59.689Z,14.65
2022-12-11T12:56:27.974Z,12.45
2022-12-11T12:58:55.531Z,15.70
2022-12-11T13:01:25.053Z,10.43
2022-12-11T13:03:59.434Z,11.20
2022-12-11T13:06:32.030Z,15.57
2022-12-11T13:09:12.394Z,13.95
2022-12-11T13:11:39.942Z,11.65
2022-12-11T13:14:15.415Z,11.95
2022-12-11T13:16:49.211Z,16.83
2022-12-11T13:19:26.357Z,13.27
2022-12-11T13:22:15.448Z,20.80
2022-12-11T13:24:49.966Z,13.43
2022-12-11T13:27:37.290Z,11.02
2022-12-11T13:30:22.497Z,10.85
2022-12-11T13:33:03.853Z,16.20
2022-12-11T13:35:32.139Z,16.25
2022-12-11T13:38:04.808Z,18.42
2022-12-11T13:40:39.231Z,16.00
2022-12-11T13:43:15.014Z,18.00
2022-12-11T13:45:52.190Z,12.35
2022-12-11T13:48:39.987Z,12.32
2022-12-11T13:51:07.634Z,12.98
2022-12-11T13:53:35.221Z,13.35
2022-12-11T13:56:08.565Z,14.57
2022-12-11T13:58:38.927Z,14.57
2022-12-11T14:01:07.860Z,11.65
2022-12-11T14:03:35.429Z,15.15
2022-12-11T14:06:03.083Z,13.48
2022-12-11T14:08:37.427Z,10.90
2022-12-11T14:11:05.135Z,9.40
2022-12-11T14:13:34.698Z,17.65
2022-12-11T14:16:02.195Z,12.98
2022-12-11T14:18:33.925Z,12.98
2022-12-11T14:23:34.228Z,16.33
2022-12-11T14:26:21.126Z,10.65
2022-12-11T14:28:48.575Z,13.65
2022-12-11T14:31:18.468Z,13.18
2022-12-11T14:33:52.011Z,14.30
2022-12-11T14:36:19.783Z,12.60
2022-12-11T14:38:54.414Z,11.65
2022-12-11T14:41:27.607Z,16.58
2022-12-11T14:43:58.154Z,12.48
2022-12-11T14:46:38.591Z,13.23
2022-12-11T14:49:29.672Z,15.15
2022-12-11T14:52:00.206Z,17.13
2022-12-11T14:54:39.118Z,17.57
2022-12-11T14:57:06.796Z,14.18
2022-12-11T14:59:40.877Z,11.25
2022-12-11T15:02:32.615Z,18.85
2022-12-11T15:05:12.789Z,16.02
2022-12-11T15:07:42.334Z,12.52
2022-12-11T15:10:22.966Z,13.60
2022-12-11T15:12:51.005Z,19.38
2022-12-11T15:15:18.674Z,14.88
2022-12-11T15:17:52.452Z,16.55
2022-12-11T15:20:27.922Z,15.88
2022-12-11T15:22:57.360Z,10.27
2022-12-11T15:25:27.941Z,13.13
2022-12-11T15:27:57.227Z,18.90
2022-12-11T15:30:29.305Z,16.10
2022-12-11T15:33:09.253Z,11.55
2022-12-11T15:35:37.027Z,17.88
2022-12-11T15:38:04.515Z,14.70
2022-12-11T15:40:32.086Z,20.17
2022-12-11T15:43:01.328Z,12.93
2022-12-11T15:45:29.119Z,17.35
2022-12-11T15:47:57.332Z,13.80
2022-12-11T15:50:26.110Z,14.35
2022-12-11T15:52:54.404Z,12.63
2022-12-11T15:55:22.555Z,15.30
2022-12-11T15:57:58.292Z,15.23
2022-12-11T16:00:27.777Z,11.55
2022-12-11T16:02:55.863Z,13.52
2022-12-11T16:05:23.860Z,16.38
2022-12-11T16:07:53.484Z,14.82
2022-12-11T16:10:21.384Z,14.18
2022-12-11T16:12:48.895Z,13.52
2022-12-11T16:15:22.778Z,15.27
2022-12-11T16:17:50.934Z,18.20
2022-12-11T16:20:18.476Z,16.40
2022-12-11T16:22:45.865Z,13.88
2022-12-11T16:25:13.642Z,19.90
2022-12-11T16:27:41.305Z,17.52
2022-12-11T16:30:10.773Z,13.60
2022-12-11T16:32:38.364Z,20.52
2022-12-11T16:35:06.043Z,17.45
2022-12-11T16:37:33.636Z,17.65
2022-12-11T16:40:01.513Z,17.33
2022-12-11T16:42:29.013Z,22.23
2022-12-11T16:44:58.740Z,17.50
2022-12-11T16:47:26.187Z,19.80
2022-12-11T16:49:53.697Z,23.42
2022-12-11T16:52:22.415Z,19.60
2022-12-11T16:54:49.965Z,14.43
2022-12-11T16:57:17.564Z,18.52
2022-12-11T16:59:44.965Z,15.85
2022-12-11T17:02:15.728Z,18.77
2022-12-11T17:04:43.192Z,13.18
2022-12-11T17:07:10.589Z,20.10
2022-12-11T17:09:38.376Z,19.50
2022-12-11T17:12:06.142Z,18.48
2022-12-11T17:14:33.726Z,24.48
2022-12-11T17:17:01.073Z,18.33
2022-12-11T17:19:28.497Z,21.33
2022-12-11T17:21:56.993Z,19.90
2022-12-11T17:24:24.349Z,20.15
2022-12-11T17:26:51.788Z,19.58
2022-12-11T17:29:20.041Z,24.98
2022-12-11T17:31:47.601Z,27.80
2022-12-11T17:34:15.979Z,22.83
2022-12-11T17:36:43.557Z,30.27
2022-12-11T17:39:11.188Z,24.08
2022-12-11T17:41:38.737Z,18.35
2022-12-11T17:44:06.127Z,18.92
2022-12-11T17:46:34.297Z,19.38
2022-12-11T17:49:05.084Z,18.98
2022-12-11T17:51:32.550Z,20.58
2022-12-11T17:53:59.901Z,17.50
2022-12-11T17:56:27.314Z,22.75
2022-12-11T17:58:54.746Z,16.70
2022-12-11T18:01:22.262Z,22.15
2022-12-11T18:03:49.778Z,21.90
2022-12-11T18:06:17.237Z,21.65
2022-12-11T18:08:46.119Z,18.40
2022-12-11T18:11:15.458Z,13.70
2022-12-11T18:13:43.625Z,17.13
2022-12-11T18:16:21.100Z,17.95
2022-12-11T18:18:48.715Z,16.75
2022-12-11T18:21:17.627Z,17.60
2022-12-11T18:23:45.281Z,25.00
2022-12-11T18:26:14.637Z,21.30
2022-12-11T18:28:42.332Z,17.75
2022-12-11T18:31:10.493Z,16.52
2022-12-11T18:33:38.248Z,23.52
2022-12-11T18:36:06.112Z,20.20
2022-12-11T18:38:33.724Z,19.48
2022-12-11T18:41:05.574Z,19.75
2022-12-11T18:43:32.913Z,14.98
2022-12-11T18:46:00.217Z,17.30
2022-12-11T18:48:27.624Z,20.15
2022-12-11T18:50:55.975Z,22.13
2022-12-11T18:53:23.388Z,23.95
2022-12-11T18:55:53.488Z,17.42
2022-12-11T18:58:24.553Z,15.50
2022-12-11T19:00:52.114Z,19.40
2022-12-11T19:03:19.508Z,16.23
2022-12-11T19:05:47.132Z,17.27
2022-12-11T19:08:16.206Z,19.73
2022-12-11T19:10:44.815Z,21.67
2022-12-11T19:13:12.757Z,18.75
2022-12-11T19:15:43.642Z,20.83
2022-12-11T19:18:11.209Z,19.17
2022-12-11T19:21:04.647Z,20.13
2022-12-11T19:23:27.140Z,20.80
2022-12-11T19:25:54.981Z,15.23
2022-12-11T19:28:23.253Z,19.88
2022-12-11T19:30:50.853Z,14.85
2022-12-11T19:33:18.341Z,15.02
2022-12-11T19:35:45.792Z,19.50
2022-12-11T19:38:13.511Z,19.73
2022-12-11T19:40:42.135Z,23.15
2022-12-11T19:43:09.806Z,21.17
2022-12-11T19:45:37.454Z,17.65
2022-12-11T19:48:05.122Z,17.38
2022-12-11T19:50:34.541Z,28.17
2022-12-11T19:53:01.930Z,18.83
2022-12-11T19:55:29.449Z,15.15
2022-12-11T19:57:57.377Z,20.98
2022-12-11T20:00:24.965Z,17.75
2022-12-11T20:02:52.424Z,18.92
2022-12-11T20:05:20.001Z,20.33
2022-12-11T20:07:47.559Z,23.38
2022-12-11T20:10:15.882Z,20.90
2022-12-11T20:12:45.257Z,22.40
2022-12-11T20:15:13.408Z,20.83
2022-12-11T20:17:44.632Z,23.33
2022-12-11T20:20:12.091Z,16.23
2022-12-11T20:22:40.480Z,19.13
2022-12-11T20:25:08.340Z,19.65
2022-12-11T20:27:35.939Z,15.82
2022-12-11T20:30:05.003Z,20.88
2022-12-11T20:32:34.274Z,19.42
2022-12-11T20:35:01.767Z,17.38
2022-12-11T20:37:29.379Z,13.30
2022-12-11T20:39:56.712Z,18.50
2022-12-11T20:42:24.106Z,20.05
2022-12-11T20:44:51.637Z,20.38
2022-12-11T20:47:22.734Z,25.23
2022-12-11T20:49:50.535Z,17.83
2022-12-11T20:52:18.634Z,21.40
2022-12-11T20:54:46.268Z,16.67
2022-12-11T20:57:16.506Z,15.98
2022-12-11T20:59:45.289Z,21.35
2022-12-11T21:02:13.127Z,22.38
2022-12-11T21:04:42.406Z,17.58
2022-12-11T21:07:10.190Z,19.70
2022-12-11T21:09:38.127Z,22.63
2022-12-11T21:12:05.912Z,15.70
2022-12-11T21:14:34.051Z,15.95
2022-12-11T21:17:01.634Z,14.90
2022-12-11T21:19:29.300Z,21.35
2022-12-11T21:21:56.941Z,17.52
2022-12-11T21:24:29.733Z,17.25
2022-12-11T21:26:58.344Z,22.90
2022-12-11T21:29:26.560Z,21.92
2022-12-11T21:31:53.955Z,17.17
2022-12-11T21:34:25.251Z,21.58
2022-12-11T21:36:56.765Z,23.25
2022-12-11T21:39:25.434Z,20.17
2022-12-11T21:41:53.053Z,21.40
2022-12-11T21:47:07.900Z,18.88
2022-12-11T21:49:35.422Z,21.65
2022-12-11T21:52:03.582Z,15.88
2022-12-11T21:54:30.978Z,17.75
2022-12-11T21:56:58.742Z,22.10
2022-12-11T21:59:26.300Z,19.85
2022-12-11T22:01:54.047Z,19.15
2022-12-11T22:04:21.484Z,14.70
2022-12-11T22:06:48.988Z,14.77
2022-12-11T22:09:16.834Z,18.27
2022-12-11T22:11:46.443Z,16.00
2022-12-11T22:14:15.083Z,15.63
2022-12-11T22:16:43.965Z,19.23
2022-12-11T22:19:11.769Z,13.63
2022-12-11T22:21:39.392Z,13.50
2022-12-11T22:24:07.178Z,13.10
2022-12-11T22:26:35.131Z,13.80
2022-12-11T22:29:02.517Z,17.48
2022-12-11T22:31:30.184Z,18.23
2022-12-11T22:33:57.690Z,18.35
2022-12-11T22:36:25.947Z,14.48
2022-12-11T22:38:55.720Z,13.15
2022-12-11T22:41:28.530Z,17.33
2022-12-11T22:43:56.607Z,13.63
2022-12-11T22:46:26.713Z,12.60
2022-12-11T22:48:54.493Z,15.63
2022-12-11T22:51:23.101Z,14.88
2022-12-11T22:53:50.499Z,16.88
2022-12-11T22:56:17.949Z,10.88
2022-12-11T22:58:45.368Z,12.85
2022-12-11T23:01:15.094Z,11.00
2022-12-11T23:03:42.616Z,12.48
2022-12-11T23:06:11.608Z,15.80
2022-12-11T23:08:39.649Z,13.82
2022-12-11T23:11:28.309Z,11.13
2022-12-11T23:13:55.906Z,14.15
2022-12-11T23:16:23.971Z,11.95
2022-12-11T23:18:51.590Z,10.63
2022-12-11T23:21:19.096Z,14.52
2022-12-11T23:23:46.564Z,14.27
2022-12-11T23:26:14.110Z,11.93
2022-12-11T23:28:41.940Z,10.25
2022-12-11T23:31:09.501Z,10.00
2022-12-11T23:33:37.152Z,11.55
2022-12-11T23:36:05.013Z,15.20
2022-12-11T23:38:32.573Z,10.85
2022-12-11T23:41:01.994Z,11.02
2022-12-11T23:43:29.599Z,10.10
2022-12-11T23:45:57.843Z,11.20
2022-12-11T23:48:27.231Z,9.40
2022-12-11T23:51:01.460Z,10.20
2022-12-11T23:53:29.107Z,11.35
2022-12-11T23:55:56.647Z,9.88
2022-12-11T23:58:24.022Z,9.05
